createdAt,value
2023-02-12T00:01:47.668Z,100272.11
2023-02-12T00:04:16.816Z,100271.71
2023-02-12T00:06:45.276Z,100273.23
2023-02-12T00:09:13.747Z,100271.41
2023-02-12T00:11:42.131Z,100275.46
2023-02-12T00:14:10.479Z,100276.92
2023-02-12T00:16:38.880Z,100274.25
2023-02-12T00:19:07.303Z,100269.79
2023-02-12T00:21:36.016Z,100269.74
2023-02-12T00:24:04.888Z,100270.95
2023-02-12T00:26:33.517Z,100273.40
2023-02-12T00:29:02.900Z,100273.73
2023-02-12T00:31:32.248Z,100279.81
2023-02-12T00:34:01.017Z,100279.77
2023-02-12T00:36:31.547Z,100280.31
2023-02-12T00:39:01.081Z,100279.83
2023-02-12T00:41:30.271Z,100280.40
2023-02-12T00:43:58.676Z,100279.91
2023-02-12T00:46:27.282Z,100283.07
2023-02-12T00:48:55.653Z,100281.63
2023-02-12T00:51:24.078Z,100287.40
2023-02-12T00:53:52.512Z,100297.02
2023-02-12T00:56:21.031Z,100296.46
2023-02-12T00:58:50.948Z,100292.80
2023-02-12T01:01:19.470Z,100286.64
2023-02-12T01:03:47.927Z,100289.63
2023-02-12T01:06:16.328Z,100292.54
2023-02-12T01:08:44.744Z,100296.65
2023-02-12T01:11:14.432Z,100296.30
2023-02-12T01:13:42.937Z,100295.55
2023-02-12T01:16:20.430Z,100299.71
2023-02-12T01:18:49.990Z,100301.27
2023-02-12T01:21:22.344Z,100304.27
2023-02-12T01:23:51.541Z,100301.94
2023-02-12T01:26:21.915Z,100302.81
2023-02-12T01:28:55.236Z,100307.71
2023-02-12T01:31:26.760Z,100317.17
2023-02-12T01:33:57.998Z,100318.89
2023-02-12T01:36:30.207Z,100322.91
2023-02-12T01:38:59.351Z,100319.23
2023-02-12T01:41:31.375Z,100324.11
2023-02-12T01:44:14.068Z,100326.50
2023-02-12T01:46:45.162Z,100329.73
2023-02-12T01:49:24.241Z,100332.83
2023-02-12T01:51:59.297Z,100334.30
2023-02-12T01:54:29.410Z,100332.61
2023-02-12T01:56:59.654Z,100334.07
2023-02-12T01:59:29.582Z,100331.60
2023-02-12T02:01:58.666Z,100335.08
2023-02-12T02:04:40.605Z,100341.38
2023-02-12T02:07:12.287Z,100344.33
2023-02-12T02:09:41.144Z,100348.60
2023-02-12T02:12:28.924Z,100356.60
2023-02-12T02:15:00.776Z,100363.45
2023-02-12T02:17:39.515Z,100368.71
2023-02-12T02:21:05.671Z,100374.20
2023-02-12T02:23:52.354Z,100384.39
2023-02-12T02:26:49.009Z,100388.80
2023-02-12T02:29:43.355Z,100390.00
2023-02-12T02:32:23.656Z,100401.92
2023-02-12T02:35:08.680Z,100405.11
2023-02-12T02:37:40.448Z,100413.33
2023-02-12T02:40:32.086Z,100420.98
2023-02-12T02:43:09.771Z,100423.33
2023-02-12T02:45:40.426Z,100432.00
2023-02-12T02:48:13.649Z,100435.77
2023-02-12T02:50:48.626Z,100443.20
2023-02-12T02:53:22.624Z,100446.98
2023-02-12T02:55:55.934Z,100449.16
2023-02-12T02:58:44.417Z,100446.36
2023-02-12T03:01:19.383Z,100447.73
2023-02-12T03:04:03.970Z,100444.36
2023-02-12T03:06:48.857Z,100449.30
2023-02-12T03:09:29.112Z,100453.40
2023-02-12T03:12:03.598Z,100458.62
2023-02-12T03:14:38.638Z,100463.31
2023-02-12T03:17:14.347Z,100463.48
2023-02-12T03:19:47.241Z,100469.33
2023-02-12T03:22:25.389Z,100470.98
2023-02-12T03:25:05.675Z,100480.33
2023-02-12T03:27:39.895Z,100489.80
2023-02-12T03:30:09.262Z,100486.23
2023-02-12T03:33:10.216Z,100488.66
2023-02-12T03:35:45.259Z,100495.94
2023-02-12T03:38:29.073Z,100504.30
2023-02-12T03:41:05.222Z,100510.12
2023-02-12T03:43:39.337Z,100515.38
2023-02-12T03:46:40.468Z,100513.81
2023-02-12T03:49:35.290Z,100522.84
2023-02-12T03:52:04.946Z,100526.48
2023-02-12T03:54:33.729Z,100529.30
2023-02-12T03:57:24.028Z,100534.07
2023-02-12T03:59:52.488Z,100528.73
2023-02-12T04:02:20.846Z,100529.36
2023-02-12T04:04:49.515Z,100538.43
2023-02-12T04:07:18.302Z,100548.30
2023-02-12T04:09:46.636Z,100555.98
2023-02-12T04:12:36.808Z,100557.96
2023-02-12T04:15:29.606Z,100553.89
2023-02-12T04:18:04.000Z,100568.89
2023-02-12T04:21:02.765Z,100565.60
2023-02-12T04:23:33.774Z,100577.14
2023-02-12T04:26:17.266Z,100589.61
2023-02-12T04:29:04.227Z,100596.07
2023-02-12T04:31:42.326Z,100605.13
2023-02-12T04:34:35.585Z,100603.06
2023-02-12T04:37:13.828Z,100607.33
2023-02-12T04:39:44.412Z,100615.87
2023-02-12T04:42:12.959Z,100618.88
2023-02-12T04:44:43.436Z,100617.27
2023-02-12T04:47:13.645Z,100628.14
2023-02-12T04:49:42.316Z,100636.52
2023-02-12T04:52:10.710Z,100636.83
2023-02-12T04:54:39.058Z,100647.41
2023-02-12T04:57:07.484Z,100652.41
2023-02-12T04:59:35.960Z,100655.08
2023-02-12T05:02:04.304Z,100658.02
2023-02-12T05:04:32.800Z,100660.79
2023-02-12T05:07:01.089Z,100661.83
2023-02-12T05:09:31.759Z,100669.98
2023-02-12T05:12:00.159Z,100680.19
2023-02-12T05:14:28.483Z,100686.15
2023-02-12T05:16:56.745Z,100686.30
2023-02-12T05:19:25.365Z,100689.24
2023-02-12T05:21:53.695Z,100692.90
2023-02-12T05:24:22.027Z,100697.98
2023-02-12T05:26:50.575Z,100697.30
2023-02-12T05:29:19.132Z,100695.02
2023-02-12T05:31:47.821Z,100696.95
2023-02-12T05:34:16.293Z,100704.75
2023-02-12T05:36:44.665Z,100716.12
2023-02-12T05:39:13.032Z,100723.21
2023-02-12T05:41:41.460Z,100729.40
2023-02-12T05:44:12.160Z,100731.24
2023-02-12T05:46:41.093Z,100735.36
2023-02-12T05:49:10.412Z,100744.40
2023-02-12T05:51:39.669Z,100747.90
2023-02-12T05:54:09.038Z,100749.63
2023-02-12T05:56:44.593Z,100748.25
2023-02-12T05:59:19.117Z,100746.30
2023-02-12T06:01:49.594Z,100753.05
2023-02-12T06:04:28.884Z,100759.30
2023-02-12T06:06:57.676Z,100762.19
2023-02-12T06:09:26.132Z,100765.98
2023-02-12T06:11:54.469Z,100766.00
2023-02-12T06:14:22.958Z,100765.30
2023-02-12T06:16:51.997Z,100773.06
2023-02-12T06:19:20.827Z,100784.67
2023-02-12T06:21:49.242Z,100787.77
2023-02-12T06:24:18.165Z,100794.63
2023-02-12T06:26:50.978Z,100799.55
2023-02-12T06:29:20.516Z,100807.33
2023-02-12T06:31:49.988Z,100813.33
2023-02-12T06:34:18.521Z,100814.77
2023-02-12T06:36:48.133Z,100823.59
2023-02-12T06:39:17.641Z,100831.54
2023-02-12T06:41:46.030Z,100836.87
2023-02-12T06:44:14.716Z,100842.83
2023-02-12T06:46:43.169Z,100844.91
2023-02-12T06:49:14.545Z,100850.87
2023-02-12T06:51:43.115Z,100859.32
2023-02-12T06:54:14.858Z,100863.05
2023-02-12T06:56:44.129Z,100865.67
2023-02-12T06:59:17.015Z,100868.46
2023-02-12T07:01:45.487Z,100874.44
2023-02-12T07:04:14.099Z,100881.44
2023-02-12T07:06:42.474Z,100884.52
2023-02-12T07:09:10.984Z,100884.23
2023-02-12T07:11:39.665Z,100890.02
2023-02-12T07:14:08.024Z,100888.63
2023-02-12T07:16:36.494Z,100891.32
2023-02-12T07:19:04.867Z,100890.00
2023-02-12T07:21:33.705Z,100894.98
2023-02-12T07:24:02.128Z,100899.05
2023-02-12T07:26:30.462Z,100900.65
2023-02-12T07:29:00.092Z,100901.02
2023-02-12T07:31:34.049Z,100900.12
2023-02-12T07:34:02.536Z,100898.81
2023-02-12T07:36:32.902Z,100897.48
2023-02-12T07:39:01.772Z,100900.15
2023-02-12T07:41:36.286Z,100905.98
2023-02-12T07:44:11.577Z,100913.11
2023-02-12T07:46:49.602Z,100917.60
2023-02-12T07:49:21.662Z,100918.20
2023-02-12T07:51:50.463Z,100924.02
2023-02-12T07:54:18.874Z,100927.17
2023-02-12T07:56:47.578Z,100932.72
2023-02-12T07:59:18.616Z,100932.89
2023-02-12T08:01:49.801Z,100938.69
2023-02-12T08:04:21.982Z,100943.25
2023-02-12T08:06:54.317Z,100942.55
2023-02-12T08:09:25.972Z,100945.73
2023-02-12T08:11:54.555Z,100945.77
2023-02-12T08:14:23.552Z,100944.13
2023-02-12T08:16:52.912Z,100941.75
2023-02-12T08:19:25.762Z,100939.61
2023-02-12T08:21:56.251Z,100935.84
2023-02-12T08:24:25.113Z,100935.69
2023-02-12T08:26:54.004Z,100944.08
2023-02-12T08:29:29.058Z,100945.27
2023-02-12T08:31:59.013Z,100946.38
2023-02-12T08:34:35.317Z,100947.36
2023-02-12T08:37:07.064Z,100950.63
2023-02-12T08:39:35.355Z,100951.36
2023-02-12T08:42:03.851Z,100956.91
2023-02-12T08:44:32.740Z,100962.50
2023-02-12T08:47:01.150Z,100965.97
2023-02-12T08:49:30.519Z,100967.61
2023-02-12T08:52:01.896Z,100965.85
2023-02-12T08:54:31.729Z,100967.66
2023-02-12T08:57:02.374Z,100970.84
2023-02-12T08:59:31.634Z,100977.60
2023-02-12T09:02:00.962Z,100980.56
2023-02-12T09:04:30.021Z,100983.42
2023-02-12T09:06:58.450Z,100984.82
2023-02-12T09:09:26.854Z,100991.08
2023-02-12T09:11:55.170Z,100994.89
2023-02-12T09:14:24.917Z,101000.70
2023-02-12T09:16:54.727Z,101003.89
2023-02-12T09:19:23.659Z,101003.80
2023-02-12T09:21:56.870Z,101010.17
2023-02-12T09:24:30.388Z,101014.06
2023-02-12T09:27:02.117Z,101019.44
2023-02-12T09:29:30.528Z,101022.83
2023-02-12T09:31:59.454Z,101021.94
2023-02-12T09:34:28.246Z,101022.96
2023-02-12T09:36:56.664Z,101031.98
2023-02-12T09:39:24.989Z,101033.90
2023-02-12T09:41:54.428Z,101036.84
2023-02-12T09:44:26.193Z,101041.52
2023-02-12T09:47:27.360Z,101043.40
2023-02-12T09:50:14.499Z,101044.16
2023-02-12T09:52:47.009Z,101043.56
2023-02-12T09:55:18.387Z,101046.98
2023-02-12T09:57:46.973Z,101043.88
2023-02-12T10:00:25.309Z,101045.80
2023-02-12T10:02:54.677Z,101047.42
2023-02-12T10:08:43.098Z,101053.55
2023-02-12T10:11:46.980Z,101051.48
2023-02-12T10:14:39.158Z,101053.00
2023-02-12T10:17:17.264Z,101064.42
2023-02-12T10:20:23.753Z,101067.98
2023-02-12T10:23:07.256Z,101065.52
2023-02-12T10:25:58.092Z,101065.92
2023-02-12T10:28:26.711Z,101064.84
2023-02-12T10:30:57.050Z,101069.39
2023-02-12T10:33:32.002Z,101071.20
2023-02-12T10:36:07.600Z,101073.55
2023-02-12T10:38:39.580Z,101073.13
2023-02-12T10:41:08.140Z,101075.63
2023-02-12T10:43:36.326Z,101074.45
2023-02-12T10:46:08.316Z,101079.65
2023-02-12T10:48:44.664Z,101081.66
2023-02-12T10:51:17.739Z,101078.37
2023-02-12T10:53:46.523Z,101076.42
2023-02-12T10:56:24.909Z,101078.13
2023-02-12T10:58:59.376Z,101074.64
2023-02-12T11:01:29.403Z,101072.20
2023-02-12T11:03:59.143Z,101073.73
2023-02-12T11:06:29.542Z,101073.48
2023-02-12T11:08:58.920Z,101073.98
2023-02-12T11:11:31.393Z,101073.68
2023-02-12T11:14:07.433Z,101070.86
2023-02-12T11:16:38.917Z,101066.80
2023-02-12T11:19:19.731Z,101059.87
2023-02-12T11:21:48.109Z,101060.77
2023-02-12T11:24:28.461Z,101062.37
2023-02-12T11:27:12.446Z,101061.52
2023-02-12T11:29:41.095Z,101061.05
2023-02-12T11:32:15.492Z,101068.43
2023-02-12T11:34:43.796Z,101071.75
2023-02-12T11:37:15.938Z,101063.17
2023-02-12T11:39:51.556Z,101053.80
2023-02-12T11:42:25.869Z,101046.92
2023-02-12T11:44:57.800Z,101051.52
2023-02-12T11:47:34.370Z,101056.65
2023-02-12T11:50:08.257Z,101060.44
2023-02-12T11:52:37.819Z,101061.11
2023-02-12T11:55:27.014Z,101057.98
2023-02-12T11:58:03.033Z,101061.59
2023-02-12T12:00:34.308Z,101062.11
2023-02-12T12:03:21.157Z,101067.50
2023-02-12T12:05:53.644Z,101069.11
2023-02-12T12:08:26.276Z,101065.45
2023-02-12T12:11:02.215Z,101060.79
2023-02-12T12:13:34.069Z,101065.52
2023-02-12T12:16:28.117Z,101061.82
2023-02-12T12:19:22.008Z,101060.48
2023-02-12T12:21:53.005Z,101059.17
2023-02-12T12:24:33.006Z,101051.44
2023-02-12T12:27:39.084Z,101050.70
2023-02-12T12:30:11.413Z,101044.52
2023-02-12T12:32:42.063Z,101037.53
2023-02-12T12:35:12.447Z,101034.42
2023-02-12T12:37:40.635Z,101031.20
2023-02-12T12:40:19.800Z,101023.32
2023-02-12T12:42:53.937Z,101027.61
2023-02-12T12:45:40.868Z,101034.58
2023-02-12T12:48:12.331Z,101038.40
2023-02-12T12:50:43.764Z,101040.97
2023-02-12T12:53:34.764Z,101047.48
2023-02-12T12:56:17.088Z,101046.89
2023-02-12T12:59:14.451Z,101044.01
2023-02-12T13:01:45.091Z,101051.23
2023-02-12T13:04:33.230Z,101054.20
2023-02-12T13:07:15.038Z,101051.66
2023-02-12T13:09:45.920Z,101053.94
2023-02-12T13:12:35.221Z,101060.40
2023-02-12T13:15:25.090Z,101064.51
2023-02-12T13:18:25.590Z,101060.80
2023-02-12T13:21:23.415Z,101061.14
2023-02-12T13:23:56.448Z,101058.89
2023-02-12T13:26:33.702Z,101063.55
2023-02-12T13:29:06.527Z,101062.95
2023-02-12T13:31:39.110Z,101067.41
2023-02-12T13:34:13.141Z,101067.46
2023-02-12T13:36:46.353Z,101072.45
2023-02-12T13:39:36.499Z,101073.59
2023-02-12T13:42:17.266Z,101067.68
2023-02-12T13:44:58.873Z,101066.61
2023-02-12T13:47:40.867Z,101069.52
2023-02-12T13:50:21.570Z,101073.70
2023-02-12T13:52:58.158Z,101078.34
2023-02-12T13:55:26.353Z,101077.95
2023-02-12T13:58:14.570Z,101077.83
2023-02-12T14:00:53.284Z,101076.61
2023-02-12T14:03:25.308Z,101081.71
2023-02-12T14:06:12.628Z,101084.95
2023-02-12T14:08:48.482Z,101082.98
2023-02-12T14:11:19.414Z,101081.31
2023-02-12T14:13:47.584Z,101080.58
2023-02-12T14:16:39.569Z,101081.52
2023-02-12T14:19:26.805Z,101083.64
2023-02-12T14:21:55.031Z,101085.27
2023-02-12T14:24:38.506Z,101085.90
2023-02-12T14:27:25.525Z,101083.08
2023-02-12T14:30:09.167Z,101084.92
2023-02-12T14:32:58.291Z,101081.89
2023-02-12T14:35:29.704Z,101077.27
2023-02-12T14:37:59.120Z,101082.30
2023-02-12T14:40:37.600Z,101084.42
2023-02-12T14:43:26.933Z,101082.48
2023-02-12T14:45:57.322Z,101081.90
2023-02-12T14:48:43.015Z,101081.20
2023-02-12T14:51:34.828Z,101078.77
2023-02-12T14:54:04.918Z,101077.61
2023-02-12T14:56:37.307Z,101079.13
2023-02-12T14:59:07.203Z,101079.54
2023-02-12T15:01:36.354Z,101085.04
2023-02-12T15:04:13.225Z,101084.42
2023-02-12T15:06:44.835Z,101084.90
2023-02-12T15:09:20.106Z,101086.23
2023-02-12T15:11:55.488Z,101085.98
2023-02-12T15:14:30.533Z,101083.28
2023-02-12T15:17:21.184Z,101085.31
2023-02-12T15:19:54.623Z,101091.37
2023-02-12T15:22:25.006Z,101094.92
2023-02-12T15:24:56.027Z,101098.81
2023-02-12T15:27:24.259Z,101102.30
2023-02-12T15:29:58.165Z,101104.73
2023-02-12T15:32:28.947Z,101106.48
2023-02-12T15:34:57.296Z,101107.76
2023-02-12T15:37:27.402Z,101105.00
2023-02-12T15:40:05.698Z,101106.95
2023-02-12T15:43:03.324Z,101106.84
2023-02-12T15:45:40.189Z,101100.45
2023-02-12T15:48:15.981Z,101101.09
2023-02-12T15:50:57.652Z,101106.29
2023-02-12T15:53:34.334Z,101109.39
2023-02-12T15:56:17.621Z,101112.48
2023-02-12T15:58:53.232Z,101115.73
2023-02-12T16:01:32.457Z,101119.38
2023-02-12T16:04:05.849Z,101117.56
2023-02-12T16:06:39.804Z,101123.59
2023-02-12T16:09:09.961Z,101128.94
2023-02-12T16:11:38.407Z,101130.44
2023-02-12T16:14:40.811Z,101134.89
2023-02-12T16:17:30.124Z,101135.33
2023-02-12T16:19:59.709Z,101134.33
2023-02-12T16:22:37.167Z,101140.69
2023-02-12T16:25:16.695Z,101141.27
2023-02-12T16:28:07.192Z,101141.31
2023-02-12T16:30:39.037Z,101143.45
2023-02-12T16:33:27.256Z,101143.33
2023-02-12T16:36:06.250Z,101146.52
2023-02-12T16:38:37.504Z,101150.05
2023-02-12T16:41:14.656Z,101152.89
2023-02-12T16:43:42.903Z,101155.17
2023-02-12T16:46:12.494Z,101158.69
2023-02-12T16:48:49.068Z,101160.79
2023-02-12T16:51:25.570Z,101163.25
2023-02-12T16:53:57.808Z,101164.30
2023-02-12T16:56:27.840Z,101168.14
2023-02-12T16:59:00.121Z,101168.48
2023-02-12T17:01:33.613Z,101172.15
2023-02-12T17:04:04.834Z,101177.06
2023-02-12T17:06:33.462Z,101178.81
2023-02-12T17:09:01.732Z,101178.63
2023-02-12T17:11:31.354Z,101170.95
2023-02-12T17:13:59.645Z,101174.27
2023-02-12T17:16:31.190Z,101167.30
2023-02-12T17:19:00.822Z,101166.25
2023-02-12T17:21:31.146Z,101164.16
2023-02-12T17:23:59.491Z,101162.41
2023-02-12T17:26:27.802Z,101161.19
2023-02-12T17:29:05.289Z,101154.19
2023-02-12T17:31:37.698Z,101158.56
2023-02-12T17:34:08.407Z,101163.98
2023-02-12T17:36:36.749Z,101163.80
2023-02-12T17:39:08.253Z,101165.55
2023-02-12T17:41:41.555Z,101166.92
2023-02-12T17:44:16.419Z,101173.73
2023-02-12T17:46:45.537Z,101177.89
2023-02-12T17:49:14.228Z,101180.86
2023-02-12T17:51:46.041Z,101180.86
2023-02-12T17:54:16.117Z,101183.48
2023-02-12T17:56:46.332Z,101182.97
2023-02-12T17:59:14.668Z,101179.83
2023-02-12T18:01:48.287Z,101174.25
2023-02-12T18:04:16.720Z,101176.16
2023-02-12T18:06:48.596Z,101178.42
2023-02-12T18:09:19.938Z,101177.55
2023-02-12T18:11:54.666Z,101175.61
2023-02-12T18:14:26.303Z,101178.91
2023-02-12T18:16:54.979Z,101177.18
2023-02-12T18:19:26.555Z,101182.59
2023-02-12T18:22:04.293Z,101183.80
2023-02-12T18:24:35.816Z,101184.67
2023-02-12T18:27:04.169Z,101182.23
2023-02-12T18:29:32.579Z,101178.77
2023-02-12T18:32:07.462Z,101174.91
2023-02-12T18:34:36.179Z,101174.40
2023-02-12T18:37:04.562Z,101173.35
2023-02-12T18:39:39.206Z,101171.45
2023-02-12T18:42:10.131Z,101171.98
2023-02-12T18:44:42.912Z,101166.23
2023-02-12T18:47:11.721Z,101158.73
2023-02-12T18:49:40.486Z,101157.16
2023-02-12T18:52:10.211Z,101161.36
2023-02-12T18:54:47.445Z,101159.79
2023-02-12T18:57:15.668Z,101160.30
2023-02-12T18:59:44.174Z,101158.73
2023-02-12T19:02:19.968Z,101152.80
2023-02-12T19:04:48.456Z,101153.52
2023-02-12T19:07:16.692Z,101153.16
2023-02-12T19:09:45.706Z,101153.68
2023-02-12T19:12:17.565Z,101148.43
2023-02-12T19:14:50.668Z,101152.63
2023-02-12T19:17:21.391Z,101150.55
2023-02-12T19:19:50.939Z,101152.80
2023-02-12T19:22:21.985Z,101153.33
2023-02-12T19:24:51.528Z,101159.27
2023-02-12T19:27:19.897Z,101161.36
2023-02-12T19:29:48.158Z,101161.89
2023-02-12T19:32:19.805Z,101161.73
2023-02-12T19:34:48.330Z,101159.27
2023-02-12T19:37:17.879Z,101160.14
2023-02-12T19:39:46.773Z,101163.11
2023-02-12T19:42:18.457Z,101166.08
2023-02-12T19:44:47.867Z,101160.14
2023-02-12T19:47:16.348Z,101155.08
2023-02-12T19:49:45.448Z,101153.33
2023-02-12T19:52:14.651Z,101159.09
2023-02-12T19:54:44.322Z,101158.73
2023-02-12T19:57:13.583Z,101160.14
2023-02-12T19:59:42.831Z,101156.11
2023-02-12T20:02:12.403Z,101148.43
2023-02-12T20:04:42.940Z,101141.10
2023-02-12T20:07:11.425Z,101139.00
2023-02-12T20:09:40.704Z,101133.23
2023-02-12T20:12:08.970Z,101133.05
2023-02-12T20:14:37.501Z,101136.17
2023-02-12T20:17:06.404Z,101129.88
2023-02-12T20:19:41.765Z,101132.48
2023-02-12T20:22:10.259Z,101136.16
2023-02-12T20:24:41.170Z,101140.87
2023-02-12T20:27:11.146Z,101148.58
2023-02-12T20:29:40.756Z,101148.71
2023-02-12T20:32:09.273Z,101147.15
2023-02-12T20:34:50.208Z,101147.48
2023-02-12T20:37:20.053Z,101150.45
2023-02-12T20:39:48.387Z,101151.85
2023-02-12T20:42:16.673Z,101150.10
2023-02-12T20:44:47.590Z,101144.86
2023-02-12T20:47:16.985Z,101148.54
2023-02-12T20:49:46.722Z,101147.45
2023-02-12T20:52:15.360Z,101146.74
2023-02-12T20:54:43.892Z,101144.09
2023-02-12T20:57:12.506Z,101142.48
2023-02-12T20:59:41.472Z,101142.80
2023-02-12T21:02:10.441Z,101142.63
2023-02-12T21:04:50.418Z,101147.16
2023-02-12T21:07:18.617Z,101147.13
2023-02-12T21:09:50.446Z,101145.71
2023-02-12T21:12:31.072Z,101142.17
2023-02-12T21:15:02.397Z,101139.86
2023-02-12T21:17:30.536Z,101139.83
2023-02-12T21:20:10.481Z,101135.26
2023-02-12T21:22:42.005Z,101128.40
2023-02-12T21:25:10.274Z,101115.40
2023-02-12T21:27:40.929Z,101112.23
2023-02-12T21:30:09.959Z,101110.10
2023-02-12T21:32:38.205Z,101111.14
2023-02-12T21:35:06.579Z,101114.96
2023-02-12T21:37:47.036Z,101121.62
2023-02-12T21:40:15.401Z,101124.94
2023-02-12T21:42:43.759Z,101128.62
2023-02-12T21:45:11.919Z,101124.23
2023-02-12T21:47:40.174Z,101125.11
2023-02-12T21:50:08.594Z,101120.52
2023-02-12T21:52:37.036Z,101116.61
2023-02-12T21:55:05.391Z,101119.54
2023-02-12T21:57:33.737Z,101120.18
2023-02-12T22:00:01.904Z,101120.69
2023-02-12T22:02:40.668Z,101124.02
2023-02-12T22:05:09.032Z,101128.21
2023-02-12T22:07:37.184Z,101130.49
2023-02-12T22:10:08.281Z,101138.75
2023-02-12T22:12:36.447Z,101140.33
2023-02-12T22:15:04.843Z,101135.77
2023-02-12T22:20:30.859Z,101140.12
2023-02-12T22:23:06.186Z,101142.71
2023-02-12T22:25:34.421Z,101144.98
2023-02-12T22:28:02.717Z,101147.23
2023-02-12T22:30:30.868Z,101150.56
2023-02-12T22:32:59.108Z,101150.39
2023-02-12T22:35:27.289Z,101150.39
2023-02-12T22:37:55.454Z,101154.44
2023-02-12T22:40:23.709Z,101156.54
2023-02-12T22:42:51.859Z,101158.67
2023-02-12T22:45:20.016Z,101162.50
2023-02-12T22:47:48.245Z,101161.78
2023-02-12T22:50:16.586Z,101159.14
2023-02-12T22:52:44.760Z,101153.67
2023-02-12T22:55:13.439Z,101152.98
2023-02-12T22:57:41.659Z,101152.09
2023-02-12T23:00:10.071Z,101154.19
2023-02-12T23:02:38.340Z,101156.98
2023-02-12T23:05:06.642Z,101154.54
2023-02-12T23:07:34.849Z,101152.95
2023-02-12T23:10:03.075Z,101155.75
2023-02-12T23:12:31.276Z,101154.89
2023-02-12T23:14:59.481Z,101156.98
2023-02-12T23:17:27.726Z,101154.14
2023-02-12T23:19:55.960Z,101154.96
2023-02-12T23:22:24.131Z,101154.39
2023-02-12T23:24:52.374Z,101147.86
2023-02-12T23:27:20.628Z,101145.17
2023-02-12T23:29:48.823Z,101138.48
2023-02-12T23:32:17.028Z,101135.11
2023-02-12T23:34:45.251Z,101133.33
2023-02-12T23:37:13.477Z,101130.98
2023-02-12T23:39:41.682Z,101129.19
2023-02-12T23:42:09.978Z,101125.11
2023-02-12T23:44:39.056Z,101121.39
2023-02-12T23:47:07.353Z,101121.89
2023-02-12T23:49:37.218Z,101115.19
2023-02-12T23:52:05.468Z,101115.00
2023-02-12T23:54:33.716Z,101119.18
2023-02-12T23:57:01.936Z,101121.98
2023-02-12T23:59:30.364Z,101125.29
